createdAt,value
2023-01-13T00:01:28.873Z,100489.78
2023-01-13T00:03:57.164Z,100482.09
2023-01-13T00:06:26.079Z,100481.28
2023-01-13T00:08:53.804Z,100477.91
2023-01-13T00:11:21.353Z,100475.38
2023-01-13T00:13:48.457Z,100483.56
2023-01-13T00:16:18.084Z,100468.66
2023-01-13T00:18:46.450Z,100464.28
2023-01-13T00:21:19.219Z,100471.56
2023-01-13T00:23:47.523Z,100469.16
2023-01-13T00:26:21.711Z,100472.75
2023-01-13T00:28:49.512Z,100473.81
2023-01-13T00:31:21.459Z,100483.56
2023-01-13T00:33:50.935Z,100488.09
2023-01-13T00:36:20.319Z,100484.69
2023-01-13T00:38:48.339Z,100503.28
2023-01-13T00:41:19.232Z,100490.88
2023-01-13T00:43:47.231Z,100486.50
2023-01-13T00:46:17.639Z,100476.78
2023-01-13T00:48:45.222Z,100479.53
2023-01-13T00:51:19.700Z,100469.84
2023-01-13T00:53:50.401Z,100468.22
2023-01-13T00:56:39.142Z,100467.28
2023-01-13T00:59:11.880Z,100458.44
2023-01-13T01:01:39.762Z,100446.19
2023-01-13T01:04:07.299Z,100437.16
2023-01-13T01:06:34.751Z,100444.34
2023-01-13T01:09:01.948Z,100443.56
2023-01-13T01:11:31.675Z,100439.13
2023-01-13T01:14:02.341Z,100443.53
2023-01-13T01:16:31.609Z,100436.47
2023-01-13T01:18:59.593Z,100433.81
2023-01-13T01:21:28.810Z,100432.16
2023-01-13T01:23:58.518Z,100440.91
2023-01-13T01:26:27.665Z,100429.25
2023-01-13T01:28:55.599Z,100429.91
2023-01-13T01:31:26.696Z,100420.19
2023-01-13T01:33:55.040Z,100439.81
2023-01-13T01:36:26.249Z,100429.81
2023-01-13T01:38:55.381Z,100441.28
2023-01-13T01:41:27.886Z,100455.66
2023-01-13T01:44:28.197Z,100450.47
2023-01-13T01:46:57.241Z,100460.06
2023-01-13T01:49:31.592Z,100466.97
2023-01-13T01:52:07.852Z,100459.91
2023-01-13T01:55:09.140Z,100467.63
2023-01-13T01:57:58.744Z,100466.84
2023-01-13T02:00:28.342Z,100458.06
2023-01-13T02:02:56.584Z,100460.78
2023-01-13T02:05:23.912Z,100447.56
2023-01-13T02:07:54.821Z,100451.94
2023-01-13T02:10:27.498Z,100440.66
2023-01-13T02:12:59.131Z,100452.97
2023-01-13T02:15:55.078Z,100448.69
2023-01-13T02:18:25.002Z,100442.47
2023-01-13T02:21:13.261Z,100451.34
2023-01-13T02:24:14.008Z,100440.75
2023-01-13T02:26:58.981Z,100433.63
2023-01-13T02:30:16.084Z,100435.69
2023-01-13T02:32:51.120Z,100433.91
2023-01-13T02:35:52.637Z,100427.59
2023-01-13T02:38:35.249Z,100424.28
2023-01-13T02:42:07.944Z,100410.00
2023-01-13T02:44:46.794Z,100398.56
2023-01-13T02:47:21.603Z,100398.47
2023-01-13T02:49:56.182Z,100395.75
2023-01-13T02:52:31.598Z,100401.97
2023-01-13T02:55:10.710Z,100417.00
2023-01-13T02:57:39.053Z,100409.13
2023-01-13T03:00:08.441Z,100408.03
2023-01-13T03:02:35.638Z,100404.53
2023-01-13T03:05:03.006Z,100409.03
2023-01-13T03:07:55.537Z,100408.16
2023-01-13T03:10:56.785Z,100409.91
2023-01-13T03:13:44.900Z,100401.00
2023-01-13T03:16:47.748Z,100385.31
2023-01-13T03:19:25.661Z,100403.97
2023-01-13T03:22:07.694Z,100403.84
2023-01-13T03:24:42.923Z,100404.00
2023-01-13T03:27:27.342Z,100403.19
2023-01-13T03:30:16.047Z,100401.44
2023-01-13T03:32:49.441Z,100396.19
2023-01-13T03:35:49.649Z,100401.50
2023-01-13T03:38:29.596Z,100405.13
2023-01-13T03:41:05.467Z,100412.13
2023-01-13T03:44:07.042Z,100419.91
2023-01-13T03:47:12.997Z,100422.59
2023-01-13T03:50:20.821Z,100423.38
2023-01-13T03:53:02.908Z,100394.97
2023-01-13T03:55:35.744Z,100388.13
2023-01-13T03:58:18.603Z,100401.38
2023-01-13T04:01:00.170Z,100393.97
2023-01-13T04:03:50.766Z,100381.84
2023-01-13T04:06:31.010Z,100393.28
2023-01-13T04:09:34.122Z,100395.19
2023-01-13T04:12:14.156Z,100396.06
2023-01-13T04:14:42.063Z,100389.97
2023-01-13T04:17:09.145Z,100404.78
2023-01-13T04:19:36.260Z,100389.25
2023-01-13T04:22:04.408Z,100406.91
2023-01-13T04:24:31.568Z,100402.69
2023-01-13T04:26:58.677Z,100410.34
2023-01-13T04:29:25.786Z,100412.22
2023-01-13T04:31:52.835Z,100408.75
2023-01-13T04:34:19.915Z,100414.22
2023-01-13T04:36:47.077Z,100420.50
2023-01-13T04:39:14.090Z,100422.09
2023-01-13T04:41:59.594Z,100418.78
2023-01-13T04:44:27.283Z,100418.03
2023-01-13T04:46:54.677Z,100403.97
2023-01-13T04:49:21.809Z,100394.16
2023-01-13T04:51:50.012Z,100402.81
2023-01-13T04:54:17.126Z,100396.03
2023-01-13T04:56:44.236Z,100395.19
2023-01-13T04:59:12.979Z,100396.81
2023-01-13T05:01:41.185Z,100395.13
2023-01-13T05:04:08.783Z,100402.25
2023-01-13T05:06:35.946Z,100396.81
2023-01-13T05:09:03.196Z,100386.25
2023-01-13T05:11:48.685Z,100387.72
2023-01-13T05:14:34.325Z,100389.69
2023-01-13T05:17:01.655Z,100389.78
2023-01-13T05:19:31.658Z,100386.31
2023-01-13T05:22:18.183Z,100372.91
2023-01-13T05:25:04.379Z,100382.69
2023-01-13T05:27:32.763Z,100367.69
2023-01-13T05:30:00.123Z,100376.47
2023-01-13T05:32:30.542Z,100384.41
2023-01-13T05:34:58.086Z,100375.44
2023-01-13T05:37:25.909Z,100373.69
2023-01-13T05:40:11.828Z,100379.94
2023-01-13T05:42:57.534Z,100387.00
2023-01-13T05:45:24.865Z,100380.81
2023-01-13T05:47:52.137Z,100389.78
2023-01-13T05:50:19.335Z,100396.88
2023-01-13T05:52:46.425Z,100401.31
2023-01-13T05:55:14.586Z,100388.84
2023-01-13T05:57:42.057Z,100402.16
2023-01-13T06:00:10.030Z,100396.59
2023-01-13T06:02:40.003Z,100390.41
2023-01-13T06:05:07.718Z,100398.63
2023-01-13T06:07:34.783Z,100389.75
2023-01-13T06:10:01.922Z,100399.44
2023-01-13T06:12:29.048Z,100390.78
2023-01-13T06:14:56.169Z,100394.25
2023-01-13T06:17:23.283Z,100398.72
2023-01-13T06:19:51.033Z,100404.13
2023-01-13T06:22:28.755Z,100402.47
2023-01-13T06:24:55.863Z,100412.06
2023-01-13T06:27:23.658Z,100411.13
2023-01-13T06:29:50.976Z,100403.19
2023-01-13T06:32:24.522Z,100403.13
2023-01-13T06:34:59.545Z,100391.56
2023-01-13T06:37:28.352Z,100387.88
2023-01-13T06:39:59.594Z,100407.22
2023-01-13T06:42:49.161Z,100413.50
2023-01-13T06:45:16.324Z,100412.31
2023-01-13T06:47:43.964Z,100414.19
2023-01-13T06:50:14.607Z,100415.06
2023-01-13T06:52:41.726Z,100412.41
2023-01-13T06:55:09.009Z,100420.09
2023-01-13T06:57:37.616Z,100425.41
2023-01-13T07:00:05.513Z,100432.41
2023-01-13T07:02:33.055Z,100422.69
2023-01-13T07:05:00.310Z,100423.66
2023-01-13T07:07:27.996Z,100419.06
2023-01-13T07:09:55.001Z,100432.22
2023-01-13T07:12:22.138Z,100429.72
2023-01-13T07:15:07.780Z,100435.78
2023-01-13T07:17:34.863Z,100437.53
2023-01-13T07:20:01.928Z,100437.50
2023-01-13T07:22:29.022Z,100444.53
2023-01-13T07:24:56.716Z,100444.56
2023-01-13T07:27:23.880Z,100448.03
2023-01-13T07:29:50.941Z,100428.59
2023-01-13T07:32:18.045Z,100446.22
2023-01-13T07:34:45.043Z,100441.66
2023-01-13T07:37:12.118Z,100450.34
2023-01-13T07:39:39.171Z,100444.34
2023-01-13T07:42:25.008Z,100457.53
2023-01-13T07:44:52.051Z,100437.28
2023-01-13T07:47:23.157Z,100448.66
2023-01-13T07:49:50.372Z,100444.03
2023-01-13T07:52:17.530Z,100445.06
2023-01-13T07:54:44.594Z,100454.78
2023-01-13T07:57:11.678Z,100451.22
2023-01-13T07:59:38.815Z,100455.56
2023-01-13T08:02:06.287Z,100464.41
2023-01-13T08:04:34.451Z,100468.81
2023-01-13T08:07:01.594Z,100459.13
2023-01-13T08:09:28.653Z,100459.81
2023-01-13T08:12:14.195Z,100456.28
2023-01-13T08:14:41.444Z,100449.25
2023-01-13T08:17:09.624Z,100448.31
2023-01-13T08:19:36.760Z,100457.91
2023-01-13T08:22:03.921Z,100456.09
2023-01-13T08:24:30.932Z,100462.34
2023-01-13T08:26:57.992Z,100467.53
2023-01-13T08:29:25.099Z,100461.25
2023-01-13T08:31:52.208Z,100474.53
2023-01-13T08:34:19.383Z,100493.94
2023-01-13T08:36:48.543Z,100484.03
2023-01-13T08:39:15.717Z,100491.94
2023-01-13T08:41:56.226Z,100495.59
2023-01-13T08:44:25.970Z,100501.91
2023-01-13T08:46:53.474Z,100493.06
2023-01-13T08:49:21.426Z,100508.94
2023-01-13T08:51:49.113Z,100505.56
2023-01-13T08:54:17.216Z,100520.59
2023-01-13T08:56:45.762Z,100519.75
2023-01-13T08:59:19.533Z,100530.38
2023-01-13T09:01:46.989Z,100530.44
2023-01-13T09:04:20.445Z,100523.34
2023-01-13T09:06:48.415Z,100535.66
2023-01-13T09:09:15.610Z,100536.66
2023-01-13T09:12:05.573Z,100545.47
2023-01-13T09:14:35.946Z,100545.47
2023-01-13T09:17:03.331Z,100536.53
2023-01-13T09:19:30.974Z,100553.34
2023-01-13T09:21:58.214Z,100560.44
2023-01-13T09:24:26.065Z,100558.69
2023-01-13T09:26:53.491Z,100555.28
2023-01-13T09:29:20.938Z,100556.19
2023-01-13T09:31:48.257Z,100555.22
2023-01-13T09:34:37.720Z,100548.28
2023-01-13T09:37:07.484Z,100550.16
2023-01-13T09:39:36.035Z,100551.81
2023-01-13T09:42:33.031Z,100550.19
2023-01-13T09:45:42.479Z,100569.50
2023-01-13T09:48:18.546Z,100571.25
2023-01-13T09:51:14.355Z,100579.03
2023-01-13T09:53:55.779Z,100585.16
2023-01-13T09:56:26.456Z,100578.03
2023-01-13T09:58:53.611Z,100585.94
2023-01-13T10:01:42.474Z,100585.91
2023-01-13T10:04:15.125Z,100575.22
2023-01-13T10:06:50.206Z,100576.91
2023-01-13T10:09:44.737Z,100578.66
2023-01-13T10:12:40.576Z,100586.53
2023-01-13T10:15:16.584Z,100586.56
2023-01-13T10:18:05.740Z,100595.38
2023-01-13T10:21:11.938Z,100602.44
2023-01-13T10:24:07.417Z,100607.69
2023-01-13T10:26:34.430Z,100607.75
2023-01-13T10:29:01.503Z,100607.59
2023-01-13T10:31:28.739Z,100620.78
2023-01-13T10:34:04.078Z,100624.31
2023-01-13T10:36:31.278Z,100625.06
2023-01-13T10:39:43.149Z,100628.50
2023-01-13T10:42:16.536Z,100640.91
2023-01-13T10:44:54.391Z,100626.66
2023-01-13T10:47:36.615Z,100636.31
2023-01-13T10:50:31.478Z,100631.06
2023-01-13T10:53:03.662Z,100636.31
2023-01-13T10:55:37.815Z,100648.78
2023-01-13T10:58:20.015Z,100646.16
2023-01-13T11:00:49.283Z,100644.28
2023-01-13T11:03:19.950Z,100647.78
2023-01-13T11:05:59.250Z,100651.34
2023-01-13T11:08:47.916Z,100651.16
2023-01-13T11:11:44.270Z,100654.59
2023-01-13T11:14:33.004Z,100660.84
2023-01-13T11:17:45.335Z,100662.53
2023-01-13T11:20:12.287Z,100667.81
2023-01-13T11:22:51.932Z,100672.13
2023-01-13T11:25:35.165Z,100662.44
2023-01-13T11:28:36.120Z,100653.59
2023-01-13T11:31:21.878Z,100644.63
2023-01-13T11:34:04.388Z,100677.25
2023-01-13T11:36:45.560Z,100656.59
2023-01-13T11:39:30.553Z,100667.31
2023-01-13T11:42:24.409Z,100653.09
2023-01-13T11:45:31.744Z,100676.88
2023-01-13T11:48:01.854Z,100674.03
2023-01-13T11:50:50.613Z,100682.81
2023-01-13T11:53:37.237Z,100692.50
2023-01-13T11:57:03.617Z,100696.84
2023-01-13T12:00:12.092Z,100704.81
2023-01-13T12:02:54.395Z,100696.72
2023-01-13T12:05:38.108Z,100688.75
2023-01-13T12:08:50.153Z,100692.22
2023-01-13T12:12:09.946Z,100707.25
2023-01-13T12:14:58.609Z,100700.09
2023-01-13T12:18:02.499Z,100717.88
2023-01-13T12:21:15.598Z,100711.53
2023-01-13T12:24:06.243Z,100723.91
2023-01-13T12:26:41.858Z,100714.94
2023-01-13T12:29:51.190Z,100720.50
2023-01-13T12:32:25.213Z,100724.91
2023-01-13T12:35:27.359Z,100739.81
2023-01-13T12:38:23.063Z,100732.59
2023-01-13T12:41:32.094Z,100743.19
2023-01-13T12:44:18.201Z,100747.59
2023-01-13T12:46:58.073Z,100747.44
2023-01-13T12:49:34.509Z,100750.16
2023-01-13T12:52:13.808Z,100742.16
2023-01-13T12:54:40.783Z,100748.28
2023-01-13T12:57:16.810Z,100760.56
2023-01-13T13:00:06.326Z,100749.81
2023-01-13T13:03:12.609Z,100759.50
2023-01-13T13:06:20.962Z,100755.91
2023-01-13T13:09:04.929Z,100780.50
2023-01-13T13:11:58.746Z,100772.66
2023-01-13T13:14:38.001Z,100771.81
2023-01-13T13:17:31.678Z,100774.47
2023-01-13T13:20:01.376Z,100788.56
2023-01-13T13:22:28.333Z,100790.22
2023-01-13T13:24:55.710Z,100792.88
2023-01-13T13:27:44.051Z,100801.66
2023-01-13T13:30:39.582Z,100807.88
2023-01-13T13:33:39.091Z,100828.19
2023-01-13T13:36:27.789Z,100810.44
2023-01-13T13:39:34.835Z,100821.75
2023-01-13T13:42:35.878Z,100814.63
2023-01-13T13:45:34.210Z,100817.25
2023-01-13T13:48:34.445Z,100823.50
2023-01-13T13:51:17.478Z,100838.66
2023-01-13T13:53:44.548Z,100842.06
2023-01-13T13:56:26.577Z,100829.75
2023-01-13T13:58:54.227Z,100842.97
2023-01-13T14:01:37.725Z,100860.59
2023-01-13T14:04:22.674Z,100862.53
2023-01-13T14:06:55.755Z,100852.78
2023-01-13T14:09:28.466Z,100872.31
2023-01-13T14:11:59.889Z,100888.22
2023-01-13T14:14:27.080Z,100894.44
2023-01-13T14:16:55.025Z,100890.03
2023-01-13T14:19:45.543Z,100890.88
2023-01-13T14:22:16.821Z,100903.31
2023-01-13T14:24:55.089Z,100909.59
2023-01-13T14:27:27.738Z,100906.94
2023-01-13T14:29:58.214Z,100919.44
2023-01-13T14:32:36.376Z,100916.78
2023-01-13T14:35:06.907Z,100923.88
2023-01-13T14:37:41.659Z,100933.66
2023-01-13T14:40:44.516Z,100940.75
2023-01-13T14:43:19.420Z,100931.84
2023-01-13T14:45:59.658Z,100951.44
2023-01-13T14:48:39.420Z,100942.53
2023-01-13T14:51:11.467Z,100955.84
2023-01-13T14:53:39.897Z,100947.03
2023-01-13T14:56:42.418Z,100956.84
2023-01-13T14:59:40.472Z,100963.03
2023-01-13T15:02:28.806Z,100974.63
2023-01-13T15:05:24.469Z,100974.59
2023-01-13T15:08:27.022Z,100980.72
2023-01-13T15:11:00.800Z,100996.88
2023-01-13T15:13:53.070Z,100983.41
2023-01-13T15:16:33.828Z,100993.19
2023-01-13T15:19:01.876Z,101001.28
2023-01-13T15:21:29.212Z,101012.47
2023-01-13T15:23:56.291Z,101012.69
2023-01-13T15:26:29.781Z,101018.97
2023-01-13T15:28:59.130Z,101012.78
2023-01-13T15:31:27.773Z,101020.69
2023-01-13T15:33:54.945Z,101036.72
2023-01-13T15:36:28.209Z,101046.47
2023-01-13T15:38:55.785Z,101054.50
2023-01-13T15:41:42.782Z,101046.59
2023-01-13T15:44:33.443Z,101066.16
2023-01-13T15:47:05.211Z,101060.88
2023-01-13T15:49:45.163Z,101072.47
2023-01-13T15:52:21.957Z,101076.88
2023-01-13T15:54:50.757Z,101080.44
2023-01-13T15:57:28.838Z,101083.19
2023-01-13T15:59:59.462Z,101085.84
2023-01-13T16:02:27.137Z,101077.97
2023-01-13T16:04:54.760Z,101105.31
2023-01-13T16:07:24.378Z,101107.03
2023-01-13T16:09:51.809Z,101099.97
2023-01-13T16:12:18.965Z,101108.78
2023-01-13T16:14:46.103Z,101127.34
2023-01-13T16:17:20.057Z,101118.50
2023-01-13T16:19:47.927Z,101107.03
2023-01-13T16:22:16.868Z,101117.59
2023-01-13T16:24:44.822Z,101131.75
2023-01-13T16:27:16.277Z,101138.63
2023-01-13T16:29:44.823Z,101146.69
2023-01-13T16:32:12.411Z,101140.53
2023-01-13T16:34:39.965Z,101139.63
2023-01-13T16:37:25.847Z,101141.44
2023-01-13T16:39:54.412Z,101152.00
2023-01-13T16:42:22.203Z,101151.22
2023-01-13T16:44:50.673Z,101144.22
2023-01-13T16:47:18.782Z,101154.84
2023-01-13T16:49:46.730Z,101166.38
2023-01-13T16:52:14.125Z,101191.13
2023-01-13T16:54:41.278Z,101194.84
2023-01-13T16:57:13.140Z,101197.50
2023-01-13T16:59:40.232Z,101197.66
2023-01-13T17:02:14.696Z,101201.25
2023-01-13T17:04:41.824Z,101185.59
2023-01-13T17:07:10.471Z,101191.91
2023-01-13T17:09:37.532Z,101191.94
2023-01-13T17:12:04.690Z,101197.25
2023-01-13T17:14:31.777Z,101205.47
2023-01-13T17:16:58.929Z,101208.16
2023-01-13T17:19:26.373Z,101210.06
2023-01-13T17:21:53.961Z,101218.97
2023-01-13T17:24:21.611Z,101235.81
2023-01-13T17:26:51.589Z,101234.03
2023-01-13T17:29:26.443Z,101212.94
2023-01-13T17:31:54.149Z,101219.94
2023-01-13T17:34:22.060Z,101232.34
2023-01-13T17:36:49.446Z,101222.69
2023-01-13T17:39:24.326Z,101240.34
2023-01-13T17:41:53.596Z,101250.13
2023-01-13T17:44:22.481Z,101250.22
2023-01-13T17:46:50.237Z,101258.16
2023-01-13T17:49:21.173Z,101257.28
2023-01-13T17:51:50.891Z,101250.34
2023-01-13T17:54:18.882Z,101246.84
2023-01-13T17:56:46.196Z,101251.25
2023-01-13T17:59:16.422Z,101246.88
2023-01-13T18:01:43.978Z,101272.53
2023-01-13T18:04:17.074Z,101276.94
2023-01-13T18:06:44.665Z,101269.94
2023-01-13T18:09:12.055Z,101271.66
2023-01-13T18:11:39.352Z,101276.97
2023-01-13T18:14:06.979Z,101284.94
2023-01-13T18:16:34.115Z,101277.00
2023-01-13T18:19:33.949Z,101276.13
2023-01-13T18:22:19.709Z,101285.00
2023-01-13T18:25:05.584Z,101283.28
2023-01-13T18:27:36.285Z,101284.16
2023-01-13T18:30:06.609Z,101284.25
2023-01-13T18:32:34.831Z,101283.38
2023-01-13T18:35:06.431Z,101292.19
2023-01-13T18:37:35.978Z,101299.28
2023-01-13T18:40:04.867Z,101312.50
2023-01-13T18:42:50.602Z,101317.75
2023-01-13T18:45:21.616Z,101316.88
2023-01-13T18:47:48.747Z,101319.50
2023-01-13T18:50:17.159Z,101321.22
2023-01-13T18:52:44.527Z,101317.69
2023-01-13T18:55:11.657Z,101317.66
2023-01-13T18:57:41.550Z,101321.97
2023-01-13T19:00:12.504Z,101316.63
2023-01-13T19:02:39.781Z,101316.59
2023-01-13T19:05:07.588Z,101328.09
2023-01-13T19:07:35.900Z,101332.50
2023-01-13T19:10:09.674Z,101338.56
2023-01-13T19:12:36.877Z,101337.69
2023-01-13T19:15:04.477Z,101350.94
2023-01-13T19:17:34.598Z,101354.44
2023-01-13T19:20:02.144Z,101367.66
2023-01-13T19:22:33.469Z,101356.13
2023-01-13T19:25:02.981Z,101357.00
2023-01-13T19:27:30.318Z,101362.34
2023-01-13T19:30:00.156Z,101354.41
2023-01-13T19:32:27.875Z,101366.75
2023-01-13T19:34:58.975Z,101365.88
2023-01-13T19:37:30.158Z,101362.28
2023-01-13T19:40:01.155Z,101372.03
2023-01-13T19:42:51.465Z,101378.22
2023-01-13T19:45:27.726Z,101381.75
2023-01-13T19:47:56.935Z,101386.94
2023-01-13T19:50:24.440Z,101386.97
2023-01-13T19:52:51.729Z,101385.22
2023-01-13T19:55:19.765Z,101391.31
2023-01-13T19:57:47.264Z,101397.50
2023-01-13T20:00:20.312Z,101395.75
2023-01-13T20:02:49.437Z,101402.81
2023-01-13T20:05:25.512Z,101403.66
2023-01-13T20:07:52.791Z,101403.66
2023-01-13T20:10:21.944Z,101416.78
2023-01-13T20:12:49.391Z,101416.84
2023-01-13T20:15:16.581Z,101417.78
2023-01-13T20:17:43.736Z,101418.59
2023-01-13T20:20:11.831Z,101421.31
2023-01-13T20:22:39.728Z,101419.56
2023-01-13T20:25:07.666Z,101421.34
2023-01-13T20:27:34.896Z,101422.22
2023-01-13T20:30:02.023Z,101419.56
2023-01-13T20:32:29.143Z,101422.22
2023-01-13T20:34:56.253Z,101425.75
2023-01-13T20:37:23.376Z,101428.41
2023-01-13T20:39:50.571Z,101426.72
2023-01-13T20:42:29.566Z,101441.63
2023-01-13T20:44:57.985Z,101451.34
2023-01-13T20:47:26.666Z,101464.56
2023-01-13T20:49:53.927Z,101461.03
2023-01-13T20:52:22.122Z,101454.88
2023-01-13T20:54:49.229Z,101463.69
2023-01-13T20:57:16.352Z,101465.44
2023-01-13T20:59:43.674Z,101462.00
2023-01-13T21:02:16.310Z,101470.84
2023-01-13T21:04:43.789Z,101474.44
2023-01-13T21:07:11.311Z,101481.50
2023-01-13T21:09:38.489Z,101491.22
2023-01-13T21:12:29.036Z,101490.34
2023-01-13T21:15:14.965Z,101496.56
2023-01-13T21:18:01.059Z,101493.03
2023-01-13T21:20:30.553Z,101493.06
2023-01-13T21:22:57.670Z,101504.50
2023-01-13T21:25:24.801Z,101501.00
2023-01-13T21:27:54.983Z,101508.91
2023-01-13T21:30:22.657Z,101508.94
2023-01-13T21:32:49.833Z,101504.53
2023-01-13T21:35:16.968Z,101502.75
2023-01-13T21:37:44.661Z,101510.69
2023-01-13T21:40:14.227Z,101515.09
2023-01-13T21:43:00.369Z,101514.22
2023-01-13T21:45:45.989Z,101515.16
2023-01-13T21:48:13.180Z,101522.22
2023-01-13T21:50:40.338Z,101520.47
2023-01-13T21:53:07.919Z,101516.00
2023-01-13T21:55:36.772Z,101526.63
2023-01-13T21:58:13.604Z,101522.22
2023-01-13T22:00:43.006Z,101527.50
2023-01-13T22:03:11.952Z,101535.47
2023-01-13T22:05:39.828Z,101535.44
2023-01-13T22:08:08.405Z,101533.63
2023-01-13T22:10:35.673Z,101533.63
2023-01-13T22:13:23.632Z,101546.91
2023-01-13T22:15:50.775Z,101559.19
2023-01-13T22:18:20.560Z,101558.28
2023-01-13T22:20:49.101Z,101560.00
2023-01-13T22:23:16.179Z,101565.34
2023-01-13T22:25:43.258Z,101563.50
2023-01-13T22:28:13.747Z,101566.16
2023-01-13T22:30:40.775Z,101559.91
2023-01-13T22:33:07.812Z,101569.63
2023-01-13T22:35:34.856Z,101564.31
2023-01-13T22:38:01.908Z,101571.34
2023-01-13T22:40:29.007Z,101572.19
2023-01-13T22:42:56.012Z,101570.47
2023-01-13T22:45:23.080Z,101570.47
2023-01-13T22:47:50.117Z,101568.69
2023-01-13T22:50:20.552Z,101562.53
2023-01-13T22:52:47.612Z,101561.66
2023-01-13T22:55:14.759Z,101572.25
2023-01-13T22:57:47.652Z,101574.91
2023-01-13T23:00:18.691Z,101577.59
2023-01-13T23:02:45.827Z,101576.75
2023-01-13T23:05:13.711Z,101579.38
2023-01-13T23:07:41.028Z,101574.06
2023-01-13T23:10:08.747Z,101591.72
2023-01-13T23:12:35.817Z,101596.13
2023-01-13T23:15:03.686Z,101593.47
2023-01-13T23:17:30.730Z,101589.09
2023-01-13T23:19:57.781Z,101589.97
2023-01-13T23:22:24.835Z,101589.09
2023-01-13T23:24:51.967Z,101581.13
2023-01-13T23:27:19.184Z,101589.97
2023-01-13T23:29:46.288Z,101576.75
2023-01-13T23:32:13.303Z,101574.97
2023-01-13T23:34:40.371Z,101566.16
2023-01-13T23:37:07.470Z,101564.31
2023-01-13T23:39:34.586Z,101565.22
2023-01-13T23:42:01.746Z,101561.66
2023-01-13T23:44:29.435Z,101555.47
2023-01-13T23:46:56.537Z,101556.38
2023-01-13T23:49:23.594Z,101564.31
2023-01-13T23:51:51.908Z,101560.78
2023-01-13T23:54:19.904Z,101559.00
2023-01-13T23:56:50.372Z,101559.88
2023-01-13T23:59:17.525Z,101564.25
